createdAt,value
2023-03-01T00:00:52.663Z,89.00
2023-03-01T00:02:59.384Z,89.00
2023-03-01T00:05:06.687Z,88.80
2023-03-01T00:07:15.184Z,88.60
2023-03-01T00:09:22.573Z,88.30
2023-03-01T00:11:30.982Z,88.00
2023-03-01T00:13:38.670Z,87.70
2023-03-01T00:15:45.954Z,87.50
2023-03-01T00:17:52.935Z,87.30
2023-03-01T00:19:59.854Z,87.60
2023-03-01T00:22:07.296Z,87.80
2023-03-01T00:24:15.963Z,87.70
2023-03-01T00:26:25.240Z,87.40
2023-03-01T00:28:31.919Z,86.80
2023-03-01T00:30:38.986Z,86.40
2023-03-01T00:32:45.822Z,86.20
2023-03-01T00:34:57.714Z,86.30
2023-03-01T00:37:07.145Z,85.30
2023-03-01T00:39:17.861Z,85.00
2023-03-01T00:41:26.731Z,85.10
2023-03-01T00:43:38.636Z,84.90
2023-03-01T00:45:45.523Z,85.10
2023-03-01T00:47:53.346Z,85.00
2023-03-01T00:50:00.170Z,84.70
2023-03-01T00:52:07.352Z,84.50
2023-03-01T00:54:16.276Z,83.60
2023-03-01T00:56:23.710Z,83.00
2023-03-01T00:58:30.740Z,82.40
2023-03-01T01:00:37.991Z,82.40
2023-03-01T01:02:45.224Z,82.60
2023-03-01T01:04:52.742Z,82.50
2023-03-01T01:06:59.670Z,82.30
2023-03-01T01:09:07.685Z,82.00
2023-03-01T01:11:17.256Z,81.90
2023-03-01T01:13:24.336Z,81.60
2023-03-01T01:15:31.237Z,81.40
2023-03-01T01:17:38.237Z,81.10
2023-03-01T01:19:45.426Z,81.10
2023-03-01T01:21:52.601Z,81.20
2023-03-01T01:23:59.870Z,81.20
2023-03-01T01:26:11.176Z,81.00
2023-03-01T01:28:19.839Z,81.20
2023-03-01T01:30:26.857Z,80.70
2023-03-01T01:32:33.940Z,80.60
2023-03-01T01:34:40.760Z,80.90
2023-03-01T01:36:48.411Z,80.70
2023-03-01T01:38:55.085Z,80.40
2023-03-01T01:41:02.255Z,80.40
2023-03-01T01:43:13.283Z,81.10
2023-03-01T01:45:38.428Z,80.40
2023-03-01T01:47:45.402Z,80.20
2023-03-01T01:49:55.248Z,80.00
2023-03-01T01:52:08.726Z,79.20
2023-03-01T01:54:24.511Z,79.40
2023-03-01T01:56:33.066Z,79.30
2023-03-01T01:58:41.383Z,80.20
2023-03-01T02:00:50.874Z,79.30
2023-03-01T02:03:01.973Z,79.10
2023-03-01T02:05:14.842Z,78.80
2023-03-01T02:07:24.550Z,78.70
2023-03-01T02:09:32.340Z,78.50
2023-03-01T02:11:40.700Z,78.60
2023-03-01T02:13:48.404Z,78.20
2023-03-01T02:15:57.585Z,78.30
2023-03-01T02:18:05.012Z,78.00
2023-03-01T02:20:23.409Z,77.80
2023-03-01T02:22:32.737Z,77.90
2023-03-01T02:24:52.462Z,77.10
2023-03-01T02:27:01.847Z,77.70
2023-03-01T02:29:11.280Z,76.70
2023-03-01T02:31:38.221Z,76.60
2023-03-01T02:33:46.944Z,76.50
2023-03-01T02:35:54.031Z,76.20
2023-03-01T02:38:02.840Z,75.90
2023-03-01T02:40:14.324Z,75.00
2023-03-01T02:42:27.297Z,75.60
2023-03-01T02:44:36.072Z,74.40
2023-03-01T02:46:48.502Z,74.00
2023-03-01T02:48:57.131Z,73.60
2023-03-01T02:51:17.320Z,73.10
2023-03-01T02:53:29.773Z,72.30
2023-03-01T02:55:37.024Z,71.50
2023-03-01T02:57:46.390Z,72.80
2023-03-01T02:59:58.405Z,72.10
2023-03-01T03:02:05.668Z,71.50
2023-03-01T03:04:14.951Z,71.80
2023-03-01T03:06:21.927Z,69.50
2023-03-01T03:08:29.376Z,70.00
2023-03-01T03:10:38.334Z,69.90
2023-03-01T03:12:45.775Z,69.50
2023-03-01T03:14:54.394Z,69.40
2023-03-01T03:17:01.726Z,69.30
2023-03-01T03:19:09.162Z,68.90
2023-03-01T03:21:16.809Z,67.60
2023-03-01T03:23:24.088Z,67.60
2023-03-01T03:25:32.656Z,67.60
2023-03-01T03:27:39.885Z,67.70
2023-03-01T03:29:47.027Z,67.10
2023-03-01T03:31:55.938Z,66.50
2023-03-01T03:34:02.965Z,66.60
2023-03-01T03:36:19.723Z,65.90
2023-03-01T03:38:26.759Z,65.70
2023-03-01T03:40:35.161Z,65.50
2023-03-01T03:42:42.240Z,65.70
2023-03-01T03:44:49.113Z,65.70
2023-03-01T03:46:57.932Z,65.80
2023-03-01T03:49:04.704Z,66.60
2023-03-01T03:51:14.038Z,67.10
2023-03-01T03:53:21.579Z,66.90
2023-03-01T03:55:32.461Z,65.50
2023-03-01T03:57:39.529Z,65.30
2023-03-01T03:59:46.363Z,64.90
2023-03-01T04:01:53.692Z,64.90
2023-03-01T04:04:06.088Z,64.90
2023-03-01T04:06:12.964Z,64.40
2023-03-01T04:08:21.941Z,63.20
2023-03-01T04:10:29.169Z,62.80
2023-03-01T04:12:36.150Z,62.50
2023-03-01T04:14:43.227Z,62.40
2023-03-01T04:16:50.094Z,59.80
2023-03-01T04:18:57.391Z,59.00
2023-03-01T04:21:06.361Z,59.60
2023-03-01T04:23:17.991Z,58.90
2023-03-01T04:25:24.868Z,59.60
2023-03-01T04:27:32.666Z,59.90
2023-03-01T04:29:39.416Z,59.90
2023-03-01T04:31:46.384Z,58.20
2023-03-01T04:33:55.019Z,58.40
2023-03-01T04:36:02.131Z,58.00
2023-03-01T04:38:11.372Z,58.00
2023-03-01T04:40:19.373Z,57.30
2023-03-01T04:42:26.211Z,55.70
2023-03-01T04:44:33.190Z,56.90
2023-03-01T04:46:40.267Z,56.40
2023-03-01T04:48:49.261Z,55.40
2023-03-01T04:50:56.474Z,55.60
2023-03-01T04:53:03.347Z,53.00
2023-03-01T04:55:13.916Z,54.10
2023-03-01T04:57:20.839Z,55.10
2023-03-01T04:59:28.072Z,55.20
2023-03-01T05:01:34.942Z,54.80
2023-03-01T05:03:43.531Z,54.40
2023-03-01T05:05:52.019Z,54.00
2023-03-01T05:08:01.000Z,53.50
2023-03-01T05:10:07.977Z,53.30
2023-03-01T05:12:16.789Z,52.50
2023-03-01T05:14:23.877Z,52.40
2023-03-01T05:16:34.877Z,51.80
2023-03-01T05:18:43.506Z,51.10
2023-03-01T05:20:50.482Z,51.10
2023-03-01T05:22:58.945Z,52.60
2023-03-01T05:25:06.024Z,50.60
2023-03-01T05:27:14.494Z,51.30
2023-03-01T05:29:26.886Z,50.00
2023-03-01T05:31:32.691Z,51.10
2023-03-01T05:33:40.899Z,49.40
2023-03-01T05:35:48.502Z,50.20
2023-03-01T05:37:56.231Z,51.10
2023-03-01T05:40:03.002Z,50.80
2023-03-01T05:42:10.644Z,49.20
2023-03-01T05:44:17.979Z,51.60
2023-03-01T05:46:26.698Z,52.30
2023-03-01T05:48:34.085Z,51.50
2023-03-01T05:50:43.476Z,49.60
2023-03-01T05:52:52.212Z,50.10
2023-03-01T05:54:59.111Z,49.20
2023-03-01T05:57:06.094Z,48.10
2023-03-01T05:59:12.759Z,47.70
2023-03-01T06:01:19.694Z,48.00
2023-03-01T06:03:29.221Z,48.30
2023-03-01T06:05:36.567Z,47.40
2023-03-01T06:07:43.792Z,46.20
2023-03-01T06:09:50.818Z,46.00
2023-03-01T06:11:57.641Z,45.50
2023-03-01T06:14:04.825Z,45.80
2023-03-01T06:16:12.713Z,45.80
2023-03-01T06:18:19.910Z,46.00
2023-03-01T06:20:30.380Z,46.40
2023-03-01T06:22:37.187Z,45.90
2023-03-01T06:24:43.859Z,46.80
2023-03-01T06:26:50.834Z,46.40
2023-03-01T06:28:57.555Z,45.30
2023-03-01T06:31:04.550Z,44.40
2023-03-01T06:33:11.302Z,44.10
2023-03-01T06:35:20.175Z,44.70
2023-03-01T06:37:28.840Z,45.80
2023-03-01T06:39:36.182Z,44.70
2023-03-01T06:41:43.512Z,43.90
2023-03-01T06:43:50.632Z,44.00
2023-03-01T06:45:57.710Z,43.60
2023-03-01T06:48:09.252Z,44.50
2023-03-01T06:50:16.976Z,43.40
2023-03-01T06:52:23.720Z,43.40
2023-03-01T06:54:32.693Z,43.60
2023-03-01T06:56:39.473Z,43.50
2023-03-01T06:58:46.392Z,42.60
2023-03-01T07:00:53.106Z,42.00
2023-03-01T07:03:02.554Z,41.60
2023-03-01T07:05:10.644Z,38.70
2023-03-01T07:07:17.621Z,40.60
2023-03-01T07:09:24.456Z,41.40
2023-03-01T07:11:33.267Z,41.50
2023-03-01T07:13:40.140Z,40.70
2023-03-01T07:15:47.097Z,41.00
2023-03-01T07:17:53.907Z,41.60
2023-03-01T07:20:01.581Z,41.80
2023-03-01T07:22:09.734Z,41.80
2023-03-01T07:24:16.927Z,41.60
2023-03-01T07:26:25.293Z,41.00
2023-03-01T07:28:37.887Z,40.00
2023-03-01T07:30:44.555Z,39.70
2023-03-01T07:32:52.715Z,39.60
2023-03-01T07:35:00.763Z,39.70
2023-03-01T07:37:07.634Z,40.50
2023-03-01T07:39:15.126Z,40.80
2023-03-01T07:41:22.457Z,41.40
2023-03-01T07:43:29.547Z,38.20
2023-03-01T07:45:38.631Z,39.60
2023-03-01T07:47:46.154Z,40.80
2023-03-01T07:49:53.031Z,39.70
2023-03-01T07:52:00.527Z,39.70
2023-03-01T07:54:07.603Z,39.50
2023-03-01T07:56:16.164Z,39.80
2023-03-01T07:58:22.939Z,39.80
2023-03-01T08:00:30.066Z,39.50
2023-03-01T08:02:38.432Z,39.50
2023-03-01T08:04:45.403Z,38.70
2023-03-01T08:06:52.375Z,38.40
2023-03-01T08:09:00.324Z,37.20
2023-03-01T08:11:08.538Z,37.70
2023-03-01T08:13:15.812Z,37.40
2023-03-01T08:15:22.584Z,37.70
2023-03-01T08:17:29.520Z,37.80
2023-03-01T08:19:38.380Z,37.70
2023-03-01T08:21:45.407Z,37.40
2023-03-01T08:23:52.286Z,38.10
2023-03-01T08:25:59.436Z,38.50
2023-03-01T08:28:06.338Z,38.70
2023-03-01T08:30:14.592Z,38.60
2023-03-01T08:32:21.699Z,39.00
2023-03-01T08:34:28.803Z,39.10
2023-03-01T08:36:40.442Z,39.00
2023-03-01T08:38:47.878Z,38.50
2023-03-01T08:40:54.535Z,38.50
2023-03-01T08:43:02.923Z,38.40
2023-03-01T08:45:10.706Z,38.70
2023-03-01T08:47:18.295Z,38.80
2023-03-01T08:49:25.694Z,39.00
2023-03-01T08:51:34.610Z,38.90
2023-03-01T08:53:43.322Z,39.00
2023-03-01T08:55:50.847Z,39.10
2023-03-01T08:57:57.766Z,39.10
2023-03-01T09:00:05.332Z,39.30
2023-03-01T09:02:17.621Z,39.60
2023-03-01T09:04:24.814Z,39.40
2023-03-01T09:06:34.967Z,39.50
2023-03-01T09:08:45.015Z,39.60
2023-03-01T09:10:51.938Z,39.50
2023-03-01T09:12:58.917Z,39.60
2023-03-01T09:15:05.998Z,39.60
2023-03-01T09:17:13.052Z,39.70
2023-03-01T09:19:20.100Z,39.60
2023-03-01T09:21:39.733Z,39.50
2023-03-01T09:23:50.953Z,39.50
2023-03-01T09:25:58.147Z,39.60
2023-03-01T09:28:05.630Z,39.80
2023-03-01T09:30:14.306Z,39.90
2023-03-01T09:32:21.055Z,40.10
2023-03-01T09:34:28.180Z,40.00
2023-03-01T09:36:35.383Z,40.20
2023-03-01T09:38:42.558Z,40.30
2023-03-01T09:40:51.887Z,40.40
2023-03-01T09:43:04.037Z,40.60
2023-03-01T09:45:19.253Z,40.60
2023-03-01T09:47:30.484Z,40.60
2023-03-01T09:49:39.313Z,40.70
2023-03-01T09:51:58.874Z,40.80
2023-03-01T09:54:07.035Z,40.90
2023-03-01T09:56:24.397Z,41.10
2023-03-01T09:58:50.782Z,40.90
2023-03-01T10:00:58.578Z,40.80
2023-03-01T10:03:13.749Z,41.00
2023-03-01T10:05:40.846Z,41.10
2023-03-01T10:08:01.084Z,41.00
2023-03-01T10:10:11.080Z,41.40
2023-03-01T10:12:22.052Z,41.60
2023-03-01T10:14:37.219Z,41.70
2023-03-01T10:16:50.702Z,42.00
2023-03-01T10:19:02.067Z,42.10
2023-03-01T10:21:14.637Z,42.20
2023-03-01T10:23:21.580Z,41.80
2023-03-01T10:25:50.103Z,42.40
2023-03-01T10:28:03.125Z,42.20
2023-03-01T10:30:18.272Z,42.40
2023-03-01T10:32:25.445Z,42.40
2023-03-01T10:34:34.642Z,42.50
2023-03-01T10:36:44.434Z,42.80
2023-03-01T10:38:56.888Z,43.10
2023-03-01T10:41:09.088Z,43.50
2023-03-01T10:43:17.754Z,43.90
2023-03-01T10:45:36.875Z,44.30
2023-03-01T10:47:43.946Z,44.60
2023-03-01T10:50:05.107Z,44.90
2023-03-01T10:52:23.858Z,45.20
2023-03-01T10:54:32.729Z,45.90
2023-03-01T10:56:53.073Z,46.10
2023-03-01T10:59:06.036Z,46.70
2023-03-01T11:01:30.815Z,47.10
2023-03-01T11:03:42.472Z,47.70
2023-03-01T11:05:59.020Z,47.80
2023-03-01T11:08:07.071Z,48.60
2023-03-01T11:10:20.865Z,48.50
2023-03-01T11:12:28.245Z,49.00
2023-03-01T11:14:42.800Z,49.50
2023-03-01T11:16:51.384Z,49.90
2023-03-01T11:19:03.321Z,50.10
2023-03-01T11:21:12.386Z,50.50
2023-03-01T11:23:20.742Z,51.10
2023-03-01T11:25:31.599Z,51.60
2023-03-01T11:27:42.219Z,51.90
2023-03-01T11:29:56.212Z,52.00
2023-03-01T11:32:06.213Z,52.30
2023-03-01T11:34:18.819Z,52.90
2023-03-01T11:36:33.118Z,52.90
2023-03-01T11:38:42.244Z,53.30
2023-03-01T11:40:56.126Z,53.70
2023-03-01T11:43:16.746Z,53.80
2023-03-01T11:45:28.874Z,54.10
2023-03-01T11:47:58.843Z,54.30
2023-03-01T11:50:30.241Z,54.90
2023-03-01T11:52:51.806Z,55.30
2023-03-01T11:55:21.158Z,55.30
2023-03-01T11:57:44.458Z,55.60
2023-03-01T12:00:08.956Z,56.30
2023-03-01T12:02:39.661Z,56.40
2023-03-01T12:05:07.959Z,56.70
2023-03-01T12:07:24.466Z,57.20
2023-03-01T12:09:57.558Z,56.90
2023-03-01T12:12:33.705Z,56.80
2023-03-01T12:14:56.208Z,57.30
2023-03-01T12:17:14.161Z,57.50
2023-03-01T12:19:37.711Z,57.60
2023-03-01T12:22:00.556Z,57.90
2023-03-01T12:24:29.959Z,57.90
2023-03-01T12:26:39.465Z,57.80
2023-03-01T12:29:06.289Z,58.00
2023-03-01T12:32:04.732Z,58.90
2023-03-01T12:34:28.845Z,60.30
2023-03-01T12:36:56.717Z,59.70
2023-03-01T12:39:14.138Z,60.50
2023-03-01T12:41:48.510Z,60.00
2023-03-01T12:44:05.365Z,60.50
2023-03-01T12:46:24.990Z,60.80
2023-03-01T12:48:48.921Z,61.30
2023-03-01T12:51:01.319Z,60.70
2023-03-01T12:53:08.611Z,60.70
2023-03-01T12:55:28.690Z,60.50
2023-03-01T12:57:41.040Z,61.70
2023-03-01T13:00:02.661Z,62.20
2023-03-01T13:02:21.465Z,62.80
2023-03-01T13:04:54.506Z,63.10
2023-03-01T13:07:19.753Z,64.30
2023-03-01T13:09:34.359Z,63.60
2023-03-01T13:11:45.383Z,64.00
2023-03-01T13:13:53.586Z,64.00
2023-03-01T13:16:01.435Z,63.90
2023-03-01T13:18:31.261Z,64.20
2023-03-01T13:20:50.367Z,63.90
2023-03-01T13:23:09.876Z,64.20
2023-03-01T13:25:24.321Z,64.80
2023-03-01T13:27:32.843Z,64.50
2023-03-01T13:29:49.440Z,64.30
2023-03-01T13:32:05.907Z,65.00
2023-03-01T13:35:06.833Z,65.40
2023-03-01T13:37:23.130Z,66.40
2023-03-01T13:39:42.549Z,66.60
2023-03-01T13:41:55.787Z,68.30
2023-03-01T13:44:03.322Z,69.20
2023-03-01T13:46:16.022Z,68.30
2023-03-01T13:48:28.378Z,68.20
2023-03-01T13:50:44.728Z,67.80
2023-03-01T13:52:59.590Z,67.90
2023-03-01T13:55:10.610Z,68.20
2023-03-01T13:57:25.685Z,68.20
2023-03-01T13:59:32.859Z,68.40
2023-03-01T14:01:43.318Z,69.30
2023-03-01T14:03:52.457Z,69.50
2023-03-01T14:06:20.434Z,69.70
2023-03-01T14:08:29.663Z,71.20
2023-03-01T14:10:58.541Z,70.90
2023-03-01T14:13:21.586Z,71.90
2023-03-01T14:15:35.909Z,72.10
2023-03-01T14:18:03.799Z,72.00
2023-03-01T14:20:17.021Z,73.80
2023-03-01T14:22:26.815Z,73.30
2023-03-01T14:24:36.351Z,73.80
2023-03-01T14:26:45.992Z,74.80
2023-03-01T14:28:54.596Z,76.10
2023-03-01T14:31:02.640Z,75.30
2023-03-01T14:33:21.667Z,75.20
2023-03-01T14:35:30.748Z,75.40
2023-03-01T14:37:38.793Z,75.70
2023-03-01T14:39:45.927Z,75.80
2023-03-01T14:41:56.209Z,76.80
2023-03-01T14:44:06.075Z,76.80
2023-03-01T14:46:23.474Z,77.10
2023-03-01T14:48:33.351Z,76.90
2023-03-01T14:50:44.473Z,76.70
2023-03-01T14:52:56.132Z,76.70
2023-03-01T14:55:06.061Z,76.90
2023-03-01T14:57:21.065Z,76.70
2023-03-01T14:59:28.146Z,77.40
2023-03-01T15:01:35.374Z,77.20
2023-03-01T15:03:45.845Z,76.90
2023-03-01T15:05:53.072Z,76.80
2023-03-01T15:08:01.227Z,76.70
2023-03-01T15:10:17.574Z,76.50
2023-03-01T15:12:45.948Z,76.80
2023-03-01T15:15:03.302Z,77.20
2023-03-01T15:17:31.196Z,76.80
2023-03-01T15:19:39.355Z,77.10
2023-03-01T15:21:51.850Z,77.10
2023-03-01T15:24:01.610Z,77.00
2023-03-01T15:26:08.541Z,77.00
2023-03-01T15:28:25.121Z,77.60
2023-03-01T15:30:39.307Z,77.60
2023-03-01T15:32:46.541Z,77.60
2023-03-01T15:34:53.398Z,77.60
2023-03-01T15:37:02.540Z,77.60
2023-03-01T15:39:09.929Z,77.70
2023-03-01T15:41:29.399Z,77.90
2023-03-01T15:43:46.851Z,78.10
2023-03-01T15:46:01.577Z,78.20
2023-03-01T15:48:09.567Z,78.10
2023-03-01T15:50:24.534Z,77.40
2023-03-01T15:52:33.669Z,76.10
2023-03-01T15:54:41.209Z,76.20
2023-03-01T15:56:48.200Z,75.60
2023-03-01T15:58:56.752Z,75.60
2023-03-01T16:01:03.987Z,74.20
2023-03-01T16:03:12.804Z,72.90
2023-03-01T16:05:25.182Z,72.80
2023-03-01T16:07:31.218Z,73.30
2023-03-01T16:09:38.346Z,73.20
2023-03-01T16:11:45.331Z,73.00
2023-03-01T16:13:53.864Z,72.30
2023-03-01T16:16:02.864Z,71.70
2023-03-01T16:18:12.246Z,71.40
2023-03-01T16:20:28.025Z,71.70
2023-03-01T16:22:36.393Z,71.40
2023-03-01T16:24:43.216Z,71.30
2023-03-01T16:26:50.289Z,71.30
2023-03-01T16:28:59.982Z,70.10
2023-03-01T16:31:09.066Z,69.90
2023-03-01T16:33:30.347Z,70.80
2023-03-01T16:35:45.591Z,70.40
2023-03-01T16:37:54.616Z,70.70
2023-03-01T16:40:01.652Z,70.30
2023-03-01T16:42:08.313Z,70.70
2023-03-01T16:44:15.344Z,70.40
2023-03-01T16:46:25.697Z,70.50
2023-03-01T16:48:32.678Z,70.80
2023-03-01T16:50:39.549Z,71.80
2023-03-01T16:52:46.733Z,72.30
2023-03-01T16:54:53.604Z,72.50
2023-03-01T16:57:00.785Z,72.50
2023-03-01T16:59:07.508Z,72.30
2023-03-01T17:01:15.982Z,72.20
2023-03-01T17:03:24.672Z,72.10
2023-03-01T17:05:32.072Z,71.30
2023-03-01T17:07:39.307Z,70.70
2023-03-01T17:09:46.393Z,71.40
2023-03-01T17:11:53.515Z,71.70
2023-03-01T17:14:00.545Z,72.20
2023-03-01T17:16:09.201Z,72.40
2023-03-01T17:18:16.393Z,72.50
2023-03-01T17:20:25.009Z,72.50
2023-03-01T17:22:44.576Z,72.50
2023-03-01T17:24:52.480Z,71.60
2023-03-01T17:26:59.504Z,71.40
2023-03-01T17:29:06.854Z,71.50
2023-03-01T17:31:14.040Z,72.30
2023-03-01T17:33:22.258Z,73.20
2023-03-01T17:35:30.876Z,73.10
2023-03-01T17:37:38.819Z,72.90
2023-03-01T17:39:45.452Z,73.20
2023-03-01T17:41:52.437Z,73.60
2023-03-01T17:43:59.199Z,73.70
2023-03-01T17:46:06.391Z,72.60
2023-03-01T17:48:13.355Z,72.90
2023-03-01T17:50:20.652Z,74.00
2023-03-01T17:52:29.022Z,74.40
2023-03-01T17:54:36.138Z,74.70
2023-03-01T17:56:43.629Z,74.70
2023-03-01T17:58:50.698Z,74.30
2023-03-01T18:00:57.358Z,74.70
2023-03-01T18:03:04.839Z,74.90
2023-03-01T18:05:12.720Z,75.20
2023-03-01T18:07:19.829Z,75.40
2023-03-01T18:09:29.772Z,75.90
2023-03-01T18:11:37.324Z,75.80
2023-03-01T18:13:44.462Z,76.10
2023-03-01T18:15:51.222Z,76.20
2023-03-01T18:17:58.210Z,76.20
2023-03-01T18:20:05.026Z,76.30
2023-03-01T18:22:12.149Z,76.80
2023-03-01T18:24:19.488Z,76.90
2023-03-01T18:26:28.650Z,76.70
2023-03-01T18:28:35.900Z,76.80
2023-03-01T18:30:42.702Z,77.00
2023-03-01T18:32:49.697Z,76.70
2023-03-01T18:34:56.377Z,76.90
2023-03-01T18:37:09.058Z,77.10
2023-03-01T18:39:18.717Z,77.70
2023-03-01T18:41:28.784Z,77.70
2023-03-01T18:43:35.650Z,78.70
2023-03-01T18:45:43.369Z,78.90
2023-03-01T18:47:50.878Z,79.20
2023-03-01T18:49:57.861Z,78.90
2023-03-01T18:52:05.090Z,79.20
2023-03-01T18:54:14.021Z,78.90
2023-03-01T18:56:20.972Z,78.80
2023-03-01T18:58:29.820Z,79.20
2023-03-01T19:00:36.833Z,79.00
2023-03-01T19:02:44.228Z,79.00
2023-03-01T19:04:54.018Z,78.60
2023-03-01T19:07:03.100Z,78.50
2023-03-01T19:09:12.319Z,78.50
2023-03-01T19:11:20.104Z,78.20
2023-03-01T19:13:28.795Z,78.10
2023-03-01T19:15:35.730Z,78.20
2023-03-01T19:17:42.421Z,78.00
2023-03-01T19:19:51.141Z,78.10
2023-03-01T19:22:05.685Z,78.30
2023-03-01T19:24:13.865Z,78.70
2023-03-01T19:26:22.736Z,78.90
2023-03-01T19:28:31.598Z,78.90
2023-03-01T19:30:38.431Z,78.80
2023-03-01T19:32:45.356Z,78.60
2023-03-01T19:34:52.289Z,78.30
2023-03-01T19:36:59.565Z,77.70
2023-03-01T19:39:09.152Z,76.90
2023-03-01T19:41:19.136Z,76.50
2023-03-01T19:43:26.880Z,76.40
2023-03-01T19:45:35.397Z,76.30
2023-03-01T19:47:42.199Z,76.60
2023-03-01T19:49:49.314Z,76.90
2023-03-01T19:51:55.976Z,77.10
2023-03-01T19:54:03.455Z,77.30
2023-03-01T19:56:11.630Z,77.00
2023-03-01T19:58:19.212Z,76.80
2023-03-01T20:00:26.239Z,77.50
2023-03-01T20:02:35.591Z,77.00
2023-03-01T20:04:42.545Z,77.40
2023-03-01T20:06:50.643Z,78.00
2023-03-01T20:08:57.376Z,77.80
2023-03-01T20:11:06.240Z,77.60
2023-03-01T20:13:15.166Z,77.60
2023-03-01T20:15:22.353Z,77.50
2023-03-01T20:17:28.953Z,77.60
2023-03-01T20:19:37.171Z,77.70
2023-03-01T20:21:43.674Z,77.60
2023-03-01T20:23:50.247Z,77.40
2023-03-01T20:26:06.503Z,77.80
2023-03-01T20:28:13.064Z,78.20
2023-03-01T20:30:20.334Z,78.20
2023-03-01T20:32:27.127Z,78.40
2023-03-01T20:34:35.637Z,78.70
2023-03-01T20:36:43.790Z,78.90
2023-03-01T20:38:51.023Z,78.90
2023-03-01T20:41:02.453Z,78.80
2023-03-01T20:43:09.590Z,78.40
2023-03-01T20:45:16.357Z,78.40
2023-03-01T20:47:24.224Z,78.20
2023-03-01T20:49:30.926Z,78.00
2023-03-01T20:51:39.698Z,77.70
2023-03-01T20:53:46.569Z,77.70
2023-03-01T20:55:53.803Z,78.30
2023-03-01T20:58:00.523Z,78.40
2023-03-01T21:00:09.548Z,78.60
2023-03-01T21:02:16.372Z,78.60
2023-03-01T21:04:23.397Z,78.70
2023-03-01T21:06:30.372Z,78.70
2023-03-01T21:08:39.724Z,78.60
2023-03-01T21:10:46.685Z,78.60
2023-03-01T21:12:54.174Z,78.50
2023-03-01T21:15:00.943Z,78.70
2023-03-01T21:17:07.976Z,78.90
2023-03-01T21:19:14.749Z,79.10
2023-03-01T21:21:23.669Z,79.10
2023-03-01T21:23:31.212Z,79.20
2023-03-01T21:25:39.880Z,79.30
2023-03-01T21:27:46.752Z,79.30
2023-03-01T21:29:53.986Z,79.60
2023-03-01T21:32:01.657Z,80.10
2023-03-01T21:34:10.861Z,79.90
2023-03-01T21:36:17.734Z,79.50
2023-03-01T21:38:24.613Z,79.40
2023-03-01T21:40:31.328Z,79.70
2023-03-01T21:42:40.301Z,80.00
2023-03-01T21:44:47.146Z,79.70
2023-03-01T21:46:54.460Z,80.00
2023-03-01T21:49:01.848Z,80.10
2023-03-01T21:51:09.476Z,80.00
2023-03-01T21:53:16.312Z,79.80
2023-03-01T21:55:23.748Z,79.60
2023-03-01T21:57:30.677Z,79.70
2023-03-01T21:59:39.492Z,80.10
2023-03-01T22:01:47.089Z,80.30
2023-03-01T22:03:54.727Z,80.60
2023-03-01T22:06:03.290Z,80.70
2023-03-01T22:08:11.091Z,80.80
2023-03-01T22:10:17.855Z,81.00
2023-03-01T22:12:24.831Z,81.20
2023-03-01T22:14:32.369Z,81.20
2023-03-01T22:16:42.932Z,81.40
2023-03-01T22:18:50.317Z,81.50
2023-03-01T22:20:57.661Z,81.40
2023-03-01T22:23:04.627Z,81.20
2023-03-01T22:25:12.784Z,81.30
2023-03-01T22:27:19.641Z,81.10
2023-03-01T22:29:28.847Z,81.00
2023-03-01T22:31:35.769Z,81.30
2023-03-01T22:33:44.279Z,81.20
2023-03-01T22:35:51.467Z,81.70
2023-03-01T22:37:58.388Z,81.70
2023-03-01T22:40:06.137Z,81.80
2023-03-01T22:42:13.009Z,81.90
2023-03-01T22:44:22.545Z,82.10
2023-03-01T22:46:30.651Z,82.60
2023-03-01T22:48:37.890Z,83.10
2023-03-01T22:50:48.801Z,82.90
2023-03-01T22:52:56.085Z,82.90
2023-03-01T22:55:02.968Z,82.90
2023-03-01T22:57:10.194Z,82.50
2023-03-01T22:59:19.942Z,82.60
2023-03-01T23:01:28.244Z,82.90
2023-03-01T23:03:34.969Z,82.90
2023-03-01T23:05:41.886Z,83.20
2023-03-01T23:07:50.356Z,83.20
2023-03-01T23:09:57.685Z,84.00
2023-03-01T23:12:07.680Z,84.00
2023-03-01T23:14:14.688Z,83.80
2023-03-01T23:16:24.925Z,83.80
2023-03-01T23:18:31.866Z,84.00
2023-03-01T23:20:39.670Z,84.10
2023-03-01T23:22:46.442Z,83.80
2023-03-01T23:24:55.177Z,83.80
2023-03-01T23:27:04.301Z,83.90
2023-03-01T23:29:10.905Z,84.00
2023-03-01T23:31:19.219Z,84.50
2023-03-01T23:33:26.202Z,84.70
2023-03-01T23:35:33.445Z,84.60
2023-03-01T23:37:40.410Z,84.70
2023-03-01T23:39:47.336Z,85.10
2023-03-01T23:41:55.643Z,84.90
2023-03-01T23:44:05.087Z,84.90
2023-03-01T23:46:15.251Z,85.00
2023-03-01T23:48:22.614Z,85.20
2023-03-01T23:50:29.439Z,85.30
2023-03-01T23:52:42.661Z,85.50
2023-03-01T23:54:49.789Z,85.40
2023-03-01T23:56:58.101Z,85.10
2023-03-01T23:59:07.279Z,84.90
